ADDS METAR Data INFO
IDs: Format: Raw Decoded Include TAF

Data at: 1754 UTC 19 Oct 2017

KMKN 191735Z AUTO 14008KT 10SM CLR 25/13 A3016 RMK AO2 T02460128
KMKN 191715Z AUTO 17006KT 10SM CLR 24/14 A3016 RMK AO2 T02410137
KMKN 191655Z AUTO 15010KT 10SM CLR 24/14 A3017 RMK AO2 T02360141
KMKN 191635Z AUTO 16009KT 10SM CLR 23/14 A3018 RMK AO2 T02290137
KMKN 191615Z AUTO 16010KT 10SM CLR 23/14 A3018 RMK AO2 T02260139
KMKN 191555Z AUTO 17007G14KT 10SM CLR 22/15 A3018 RMK AO2 T02190147
KMKN 191535Z AUTO 18008KT 10SM CLR 22/15 A3017 RMK AO2 T02150152
KMKN 191515Z AUTO 16008KT 10SM CLR 20/16 A3018 RMK AO2 T01990157
KMKN 191455Z AUTO 17004KT 10SM CLR 18/15 A3017 RMK AO2 T01820147
KMKN 191435Z AUTO 00000KT 10SM CLR 16/13 A3017 RMK AO2 T01550127
KMKN 191415Z AUTO 15003KT 10SM CLR 14/12 A3016 RMK AO2 T01360117
KMKN 191355Z AUTO 00000KT 10SM CLR 12/11 A3016 RMK AO2 T01180112
KMKN 191335Z AUTO 10SM CLR 11/11 A3015 RMK AO2 T01080108
KMKN 191315Z AUTO 12003KT 10SM CLR 11/10 A3014 RMK AO2 T01070097
KMKN 191255Z AUTO 16003KT 10SM CLR 11/09 A3013 RMK AO2 T01080092
KMKN 191235Z AUTO 16004KT 10SM CLR 12/10 A3013 RMK AO2 T01180101
KMKN 191215Z AUTO 17005KT 10SM CLR 12/10 A3012 RMK AO2 T01200102
KMKN 191155Z AUTO 16003KT 10SM CLR 12/10 A3012 RMK AO2 T01230095 10160 20123
KMKN 191135Z AUTO 17003KT 10SM CLR 14/10 A3012 RMK AO2 T01360103
KMKN 191115Z AUTO 15005KT 10SM CLR 14/11 A3011 RMK AO2 T01410105
KMKN 191055Z AUTO 19006KT 10SM CLR 14/10 A3011 RMK AO2 T01400101
KMKN 191035Z AUTO 17007KT 10SM CLR 14/10 A3010 RMK AO2 T01410100
KMKN 191015Z AUTO 19007KT 10SM CLR 13/10 A3010 RMK AO2 T01290096
KMKN 190955Z AUTO 19008KT 10SM CLR 13/10 A3010 RMK AO2 T01290095
KMKN 190935Z AUTO 19007KT 10SM CLR 14/09 A3010 RMK AO2 T01350094
KMKN 190915Z AUTO 19007KT 10SM CLR 14/10 A3010 RMK AO2 T01360095
KMKN 190855Z AUTO 20007KT 10SM CLR 14/10 A3011 RMK AO2 T01380095
KMKN 190835Z AUTO 20007KT 10SM CLR 13/09 A3011 RMK AO2 T01320094
KMKN 190815Z AUTO 19007KT 10SM CLR 15/09 A3011 RMK AO2 T01450093
KMKN 190755Z AUTO 19007KT 10SM CLR 14/10 A3012 RMK AO2 T01420095
KMKN 190735Z AUTO 19007KT 10SM CLR 15/09 A3012 RMK AO2 T01450094
KMKN 190715Z AUTO 18007KT 10SM CLR 16/10 A3012 RMK AO2 T01550095
KMKN 190655Z AUTO 18007KT 10SM CLR 16/10 A3012 RMK AO2 T01580096
KMKN 190635Z AUTO 19007KT 10SM CLR 16/10 A3012 RMK AO2 T01560095
KMKN 190615Z AUTO 19006KT 10SM CLR 16/09 A3011 RMK AO2 T01570092
KMKN 190555Z AUTO 19006KT 10SM CLR 15/09 A3012 RMK AO2 T01530091 10232 20152 402910098
KMKN 190535Z AUTO 20007KT 10SM CLR 16/09 A3012 RMK AO2 T01610090
KMKN 190515Z AUTO 18005KT 10SM CLR 17/09 A3012 RMK AO2 T01650087
KMKN 190455Z AUTO 18007KT 10SM CLR 17/09 A3011 RMK AO2 T01700086
KMKN 190435Z AUTO 18008KT 10SM CLR 17/09 A3012 RMK AO2 T01700087
KMKN 190415Z AUTO 18006KT 10SM CLR 16/08 A3012 RMK AO2 T01640084
KMKN 190355Z AUTO 19006KT 10SM CLR 16/08 A3012 RMK AO2 T01600080
KMKN 190335Z AUTO 18007KT 10SM CLR 17/08 A3011 RMK AO2 T01700076
KMKN 190315Z AUTO 18006KT 10SM CLR 18/08 A3011 RMK AO2 T01780075
KMKN 190255Z AUTO 17007KT 10SM CLR 18/07 A3010 RMK AO2 T01790074
KMKN 190235Z AUTO 17006KT 10SM CLR 19/07 A3009 RMK AO2 T01870070
KMKN 190215Z AUTO 16007KT 10SM CLR 19/07 A3010 RMK AO2 T01890065
KMKN 190155Z AUTO 16005KT 10SM CLR 19/06 A3009 RMK AO2 T01860063
KMKN 190135Z AUTO 15006KT 10SM CLR 19/06 A3009 RMK AO2 T01920060
KMKN 190115Z AUTO 16004KT 10SM CLR 20/05 A3008 RMK AO2 T01970054
KMKN 190055Z AUTO 15004KT 10SM CLR 20/05 A3008 RMK AO2 T02020052
KMKN 190035Z AUTO 15005KT 10SM CLR 21/05 A3007 RMK AO2 T02050051
KMKN 190015Z AUTO 15006KT 10SM CLR 22/06 A3006 RMK AO2 T02150055
KMKN 182355Z AUTO 16005KT 10SM CLR 23/06 A3006 RMK AO2 T02330060 10291 20233
KMKN 182335Z AUTO 15006KT 10SM CLR 25/06 A3006 RMK AO2 T02490062
KMKN 182315Z AUTO 16008KT 10SM CLR 26/06 A3006 RMK AO2 T02600056
KMKN 182255Z AUTO 17009KT 10SM CLR 28/05 A3006 RMK AO2 T02750051
KMKN 182235Z AUTO 18008KT 10SM CLR 28/05 A3006 RMK AO2 T02790050
KMKN 182215Z AUTO 17008KT 10SM CLR 29/05 A3006 RMK AO2 T02860049
KMKN 182155Z AUTO 18007KT 10SM CLR 28/04 A3006 RMK AO2 T02830038
KMKN 182135Z AUTO 18010G15KT 10SM CLR 28/04 A3007 RMK AO2 T02780038
KMKN 182115Z AUTO 18010G15KT 10SM CLR 29/03 A3007 RMK AO2 T02890033
KMKN 182055Z AUTO 18008KT 150V210 10SM CLR 29/04 A3007 RMK AO2 T02890042
KMKN 182035Z AUTO 18009G17KT 10SM CLR 29/05 A3008 RMK AO2 T02890048
KMKN 182015Z AUTO 17009G16KT 10SM CLR 29/05 A3009 RMK AO2 T02870051
KMKN 181955Z AUTO 19008KT 10SM CLR 28/06 A3009 RMK AO2 T02830059
KMKN 181935Z AUTO 18008KT 10SM CLR 28/06 A3010 RMK AO2 T02780061
KMKN 181915Z AUTO 19010G14KT 10SM CLR 28/06 A3011 RMK AO2 T02780058
KMKN 181855Z AUTO 19006G15KT 10SM CLR 27/07 A3013 RMK AO2 T02680065
KMKN 181835Z AUTO 17007KT 10SM CLR 26/07 A3014 RMK AO2 T02640070
KMKN 181815Z AUTO 17008G14KT 10SM CLR 26/06 A3015 RMK AO2 T02620063
KMKN 181755Z AUTO 18008KT 10SM CLR 26/08 A3015 RMK AO2 T02580077 10258 20098
KMKN 181735Z AUTO 19004KT 10SM CLR 25/08 A3016 RMK AO2 T02470075
KMKN 181715Z AUTO 18010KT 10SM CLR 24/08 A3016 RMK AO2 T02430075
KMKN 181655Z AUTO 21007G15KT 10SM CLR 23/08 A3016 RMK AO2 T02330075
KMKN 181635Z AUTO 20011G14KT 10SM CLR 23/08 A3016 RMK AO2 T02300076
KMKN 181615Z AUTO 20011KT 10SM CLR 22/08 A3017 RMK AO2 T02200075
KMKN 181555Z AUTO 21010G16KT 10SM CLR 22/07 A3017 RMK AO2 T02150073
KMKN 181535Z AUTO 20009G15KT 10SM CLR 21/08 A3017 RMK AO2 T02100078
KMKN 181515Z AUTO 19014G18KT 10SM CLR 20/07 A3017 RMK AO2 T01990073
KMKN 181455Z AUTO 20008KT 10SM CLR 19/08 A3017 RMK AO2 T01870083
KMKN 181435Z AUTO 20005KT 10SM CLR 17/09 A3016 RMK AO2 T01690086
KMKN 181415Z AUTO 19006KT 10SM CLR 16/09 A3016 RMK AO2 T01560087
KMKN 181355Z AUTO 18005KT 10SM CLR 14/09 A3015 RMK AO2 T01410085
KMKN 181335Z AUTO 17004KT 10SM CLR 12/08 A3015 RMK AO2 T01210076
KMKN 181315Z AUTO 17003KT 10SM CLR 11/07 A3015 RMK AO2 T01100070
KMKN 181255Z AUTO 10SM CLR 11/07 A3014 RMK AO2 T01070070
KMKN 181235Z AUTO 00000KT 10SM CLR 11/07 A3014 RMK AO2 T01100068
KMKN 181215Z AUTO 10SM CLR 11/07 A3014 RMK AO2 T01110068
KMKN 181155Z AUTO 00000KT 10SM CLR 11/07 A3014 RMK AO2 T01110067 10127 20102
KMKN 181135Z AUTO 00000KT 10SM CLR 11/07 A3014 RMK AO2 T01080070
KMKN 181115Z AUTO 10SM CLR 10/07 A3014 RMK AO2 T01030067
KMKN 181055Z AUTO 10SM CLR 11/07 A3013 RMK AO2 T01130070
KMKN 181035Z AUTO 16004KT 10SM CLR 12/07 A3012 RMK AO2 T01170070
KMKN 181015Z AUTO 14003KT 10SM CLR 11/07 A3012 RMK AO2 T01120070
KMKN 180955Z AUTO 17003KT 10SM CLR 12/07 A3012 RMK AO2 T01180071
KMKN 180935Z AUTO 16003KT 10SM CLR 12/07 A3012 RMK AO2 T01200072
KMKN 180915Z AUTO 16004KT 10SM CLR 12/08 A3013 RMK AO2 T01240075
KMKN 180855Z AUTO 18006KT 10SM CLR 13/08 A3013 RMK AO2 T01250076
KMKN 180835Z AUTO 19009KT 10SM CLR 12/08 A3014 RMK AO2 T01240077
KMKN 180815Z AUTO 18008KT 10SM CLR 12/08 A3014 RMK AO2 T01240076
KMKN 180755Z AUTO 18004KT 10SM CLR 11/07 A3015 RMK AO2 T01060066
KMKN 180735Z AUTO 10SM CLR 11/07 A3015 RMK AO2 T01110067
KMKN 180715Z AUTO 10SM CLR 12/07 A3015 RMK AO2 T01170068
KMKN 180655Z AUTO 15003KT 10SM CLR 11/07 A3015 RMK AO2 T01130066
KMKN 180635Z AUTO 17004KT 10SM CLR 12/07 A3015 RMK AO2 T01170067
KMKN 180615Z AUTO 16003KT 10SM CLR 12/07 A3016 RMK AO2 T01190065
KMKN 180555Z AUTO 16003KT 10SM CLR 12/06 A3016 RMK AO2 T01210062 10221 20121 402660070